Time;durP1;ratioP1;P1;durP2;ratioP2;P2;SDS_P1;SDS_P2;PMS_P1;PMS_P2;Temp;Humidity;BMP_temperature;BMP_pressure;BME280_temperature;BME280_humidity;BME280_pressure;Samples;Min_cycle;Max_cycle;Signal;HPM_P1;HPM_P2
2021/01/11 00:00:27;;;;;;;59.38;22.13;;;;;;;;;;5094391;28;20053;-75
2021/01/11 00:02:53;;;;;;;60.65;22.00;;;;;;;;;;5095997;28;20016;-75
2021/01/11 00:05:19;;;;;;;54.72;21.05;;;;;;;;;;5095763;28;20008;-75
2021/01/11 00:07:47;;;;;;;51.33;20.63;;;;;;;;;;5094512;28;20024;-75
2021/01/11 00:10:13;;;;;;;57.17;21.73;;;;;;;;;;5095728;28;20027;-76
2021/01/11 00:12:39;;;;;;;55.95;21.75;;;;;;;;;;5095359;28;20012;-75
2021/01/11 00:15:06;;;;;;;53.25;20.00;;;;;;;;;;5095574;28;20426;-75
2021/01/11 00:17:31;;;;;;;53.85;20.27;;;;;;;;;;5094254;28;20396;-76
2021/01/11 00:19:57;;;;;;;49.10;19.35;;;;;;;;;;5093838;28;20016;-76
2021/01/11 00:22:22;;;;;;;49.83;20.83;;;;;;;;;;5095125;28;20031;-76
2021/01/11 00:24:48;;;;;;;50.92;20.95;;;;;;;;;;5095359;28;20027;-76
2021/01/11 00:27:13;;;;;;;52.40;19.50;;;;;;;;;;5095260;28;20012;-74
2021/01/11 00:29:39;;;;;;;53.15;19.17;;;;;;;;;;5095247;28;20026;-75
2021/01/11 00:32:04;;;;;;;54.38;20.25;;;;;;;;;;5094119;28;20476;-76
2021/01/11 00:34:30;;;;;;;49.92;19.10;;;;;;;;;;5094820;28;20472;-75
2021/01/11 00:36:58;;;;;;;51.70;19.92;;;;;;;;;;5094994;28;20059;-76
2021/01/11 00:39:25;;;;;;;43.78;18.63;;;;;;;;;;5093764;28;20016;-75
2021/01/11 00:41:55;;;;;;;44.17;17.35;;;;;;;;;;5094891;28;20016;-75
2021/01/11 00:44:20;;;;;;;45.90;18.58;;;;;;;;;;5095103;28;20032;-76
2021/01/11 00:46:46;;;;;;;48.25;19.25;;;;;;;;;;5093475;28;20545;-75
2021/01/11 00:49:11;;;;;;;43.28;17.88;;;;;;;;;;5094385;28;20027;-76
2021/01/11 00:51:36;;;;;;;44.78;18.50;;;;;;;;;;5094818;28;20472;-75
2021/01/11 00:54:02;;;;;;;48.15;18.88;;;;;;;;;;5093636;28;20099;-75
2021/01/11 00:56:32;;;;;;;47.13;18.00;;;;;;;;;;5093039;28;20357;-75
2021/01/11 00:58:57;;;;;;;50.83;18.60;;;;;;;;;;5094554;28;20054;-75
2021/01/11 01:01:22;;;;;;;49.60;19.17;;;;;;;;;;5094596;28;20046;-76
2021/01/11 01:03:48;;;;;;;47.45;19.13;;;;;;;;;;5094089;28;20377;-75
2021/01/11 01:06:13;;;;;;;41.28;17.77;;;;;;;;;;5094599;28;20020;-76
2021/01/11 01:08:39;;;;;;;43.72;16.65;;;;;;;;;;5094063;28;20015;-75
2021/01/11 01:11:05;;;;;;;44.75;16.10;;;;;;;;;;5093123;28;20476;-75
2021/01/11 01:13:30;;;;;;;38.47;17.25;;;;;;;;;;5094410;28;20016;-75
2021/01/11 01:15:58;;;;;;;39.70;17.27;;;;;;;;;;5094163;28;20031;-75
2021/01/11 01:18:24;;;;;;;41.58;16.52;;;;;;;;;;5092136;28;20047;-75
2021/01/11 01:20:49;;;;;;;45.90;18.02;;;;;;;;;;5093042;28;20016;-75
2021/01/11 01:23:15;;;;;;;42.72;17.77;;;;;;;;;;5094070;28;20020;-75
2021/01/11 01:25:40;;;;;;;41.25;16.23;;;;;;;;;;5092812;28;20008;-75
2021/01/11 01:28:07;;;;;;;37.58;16.05;;;;;;;;;;5093910;28;20050;-75
2021/01/11 01:30:32;;;;;;;43.28;17.02;;;;;;;;;;5093732;28;20028;-75
2021/01/11 01:32:59;;;;;;;38.83;16.13;;;;;;;;;;5094115;28;20016;-76
2021/01/11 01:35:25;;;;;;;36.90;15.40;;;;;;;;;;5093443;28;20043;-75
2021/01/11 01:37:51;;;;;;;43.47;16.40;;;;;;;;;;5092688;28;20047;-76
2021/01/11 01:40:19;;;;;;;38.42;15.32;;;;;;;;;;5092469;28;20082;-75
2021/01/11 01:42:45;;;;;;;29.27;13.27;;;;;;;;;;5092554;28;20157;-75
2021/01/11 01:45:11;;;;;;;40.13;15.35;;;;;;;;;;5094165;28;20483;-75
2021/01/11 01:47:36;;;;;;;37.17;15.43;;;;;;;;;;5093560;28;20016;-75
2021/01/11 01:50:04;;;;;;;37.30;15.95;;;;;;;;;;5075566;28;20034;-75
2021/01/11 01:52:29;;;;;;;39.15;14.88;;;;;;;;;;5092528;28;20012;-75
2021/01/11 01:54:58;;;;;;;43.90;16.88;;;;;;;;;;5093823;28;20016;-75
2021/01/11 01:57:23;;;;;;;40.40;17.73;;;;;;;;;;5093204;28;20126;-75
2021/01/11 01:59:52;;;;;;;38.92;15.65;;;;;;;;;;5092518;28;20056;-75
2021/01/11 02:02:18;;;;;;;37.90;16.83;;;;;;;;;;5093686;28;20016;-76
2021/01/11 02:04:43;;;;;;;40.15;16.33;;;;;;;;;;5092222;28;20476;-75
2021/01/11 02:07:13;;;;;;;39.60;16.63;;;;;;;;;;5093701;28;20020;-75
2021/01/11 02:09:44;;;;;;;39.50;16.52;;;;;;;;;;5093454;28;20035;-75
2021/01/11 02:12:15;;;;;;;44.80;16.65;;;;;;;;;;5092418;28;20107;-75
2021/01/11 02:14:51;;;;;;;43.67;16.23;;;;;;;;;;5091144;28;20027;-76
2021/01/11 02:17:16;;;;;;;45.17;17.08;;;;;;;;;;5091873;28;20028;-75
2021/01/11 02:19:52;;;;;;;44.10;17.15;;;;;;;;;;5091351;28;20023;-75
2021/01/11 02:22:27;;;;;;;42.88;17.60;;;;;;;;;;5092734;28;20020;-75
2021/01/11 02:24:53;;;;;;;47.70;17.98;;;;;;;;;;5093127;28;20023;-75
2021/01/11 02:27:29;;;;;;;42.70;17.25;;;;;;;;;;5092132;28;20039;-75
2021/01/11 02:29:55;;;;;;;46.38;17.50;;;;;;;;;;5093118;28;20056;-75
2021/01/11 02:32:22;;;;;;;39.40;16.40;;;;;;;;;;5093173;28;20020;-75
2021/01/11 02:34:48;;;;;;;46.47;17.27;;;;;;;;;;5091658;28;20035;-75
2021/01/11 02:37:15;;;;;;;44.38;17.83;;;;;;;;;;5092655;28;20514;-75
2021/01/11 02:39:40;;;;;;;41.60;17.27;;;;;;;;;;5093078;28;20480;-75
2021/01/11 02:42:06;;;;;;;39.67;16.08;;;;;;;;;;5091654;28;20020;-75
2021/01/11 02:44:31;;;;;;;42.03;16.27;;;;;;;;;;5091958;28;20509;-75
2021/01/11 02:46:57;;;;;;;42.60;17.25;;;;;;;;;;5091792;28;20086;-75
2021/01/11 02:49:25;;;;;;;41.65;16.88;;;;;;;;;;5091024;28;20061;-75
2021/01/11 02:51:58;;;;;;;44.78;16.55;;;;;;;;;;5091543;28;20019;-75
2021/01/11 02:54:25;;;;;;;37.90;16.48;;;;;;;;;;5092390;28;20016;-75
2021/01/11 02:56:54;;;;;;;46.90;16.55;;;;;;;;;;5093232;28;20103;-74
2021/01/11 02:59:23;;;;;;;39.95;16.73;;;;;;;;;;5091648;28;20133;-75
2021/01/11 03:01:52;;;;;;;40.67;16.95;;;;;;;;;;5092985;28;20035;-76
2021/01/11 03:04:19;;;;;;;43.38;17.42;;;;;;;;;;5091358;28;20021;-75
2021/01/11 03:06:54;;;;;;;47.53;17.35;;;;;;;;;;5092580;28;20012;-75
2021/01/11 03:09:19;;;;;;;41.78;16.38;;;;;;;;;;5091066;28;20020;-75
2021/01/11 03:11:45;;;;;;;42.38;15.90;;;;;;;;;;5091494;28;20518;-75
2021/01/11 03:14:10;;;;;;;42.50;17.15;;;;;;;;;;5092703;28;20479;-75
2021/01/11 03:16:36;;;;;;;40.53;16.70;;;;;;;;;;5092352;28;20023;-75
2021/01/11 03:19:01;;;;;;;43.03;15.85;;;;;;;;;;5090828;28;20482;-75
2021/01/11 03:21:27;;;;;;;39.55;15.18;;;;;;;;;;5091360;28;20095;-75
2021/01/11 03:23:52;;;;;;;40.95;15.55;;;;;;;;;;5092483;28;20091;-75
2021/01/11 03:26:21;;;;;;;38.10;15.85;;;;;;;;;;5094616;28;20491;-75
2021/01/11 03:28:47;;;;;;;;;;;;;;;;;;5096698;28;20035;-76
2021/01/11 03:31:12;;;;;;;41.65;15.18;;;;;;;;;;5096461;28;19908;-75
2021/01/11 03:33:37;;;;;;;35.38;15.55;;;;;;;;;;5096403;28;20047;-75
2021/01/11 03:36:03;;;;;;;37.15;15.50;;;;;;;;;;5096014;28;20048;-75
2021/01/11 03:38:28;;;;;;;35.83;15.80;;;;;;;;;;5095342;28;20032;-76
2021/01/11 03:41:04;;;;;;;40.10;16.35;;;;;;;;;;5096426;28;20023;-76
2021/01/11 03:43:30;;;;;;;46.17;16.25;;;;;;;;;;5094972;28;20043;-76
2021/01/11 03:45:55;;;;;;;40.83;15.45;;;;;;;;;;5078003;28;20024;-75
2021/01/11 03:48:21;;;;;;;48.55;17.65;;;;;;;;;;5077340;28;20088;-75
2021/01/11 03:50:47;;;;;;;44.15;17.67;;;;;;;;;;5094792;28;20016;-75
2021/01/11 03:53:12;;;;;;;36.63;15.85;;;;;;;;;;5094748;28;20027;-75
2021/01/11 03:55:40;;;;;;;47.42;17.20;;;;;;;;;;5096251;28;20020;-75
2021/01/11 03:58:05;;;;;;;38.78;16.10;;;;;;;;;;5095951;28;20032;-75
2021/01/11 04:00:31;;;;;;;46.13;16.80;;;;;;;;;;5094364;28;20028;-75
2021/01/11 04:02:57;;;;;;;42.65;16.75;;;;;;;;;;5094684;28;20115;-76
2021/01/11 04:05:22;;;;;;;37.45;15.45;;;;;;;;;;5095777;28;20024;-75
2021/01/11 04:07:47;;;;;;;45.58;17.60;;;;;;;;;;5095889;28;20521;-76
2021/01/11 04:10:13;;;;;;;40.80;17.48;;;;;;;;;;5077442;28;20016;-75
2021/01/11 04:12:38;;;;;;;45.47;17.63;;;;;;;;;;5094561;28;20016;-75
2021/01/11 04:15:05;;;;;;;40.90;16.42;;;;;;;;;;5095654;28;20410;-75
2021/01/11 04:17:30;;;;;;;38.38;15.38;;;;;;;;;;5095633;28;20054;-74
2021/01/11 04:19:55;;;;;;;38.85;17.15;;;;;;;;;;5094089;28;20020;-76
2021/01/11 04:22:21;;;;;;;38.80;15.75;;;;;;;;;;5094252;28;20019;-76
2021/01/11 04:24:46;;;;;;;43.30;17.88;;;;;;;;;;5094274;28;20054;-76
2021/01/11 04:27:12;;;;;;;43.85;16.45;;;;;;;;;;5094178;28;20084;-75
2021/01/11 04:29:40;;;;;;;39.30;16.17;;;;;;;;;;5095593;28;20076;-75
2021/01/11 04:32:06;;;;;;;40.47;16.17;;;;;;;;;;5095370;28;20039;-75
2021/01/11 04:34:31;;;;;;;39.83;16.15;;;;;;;;;;5093905;28;20028;-75
2021/01/11 04:36:56;;;;;;;40.38;15.85;;;;;;;;;;5092802;28;20044;-76
2021/01/11 04:39:25;;;;;;;37.03;15.75;;;;;;;;;;5095273;28;20101;-75
2021/01/11 04:41:51;;;;;;;43.20;16.47;;;;;;;;;;5095272;28;20073;-76
2021/01/11 04:44:20;;;;;;;38.65;16.73;;;;;;;;;;5094006;28;20434;-75
2021/01/11 04:46:45;;;;;;;;;;;;;;;;;;5095128;28;20044;-76
2021/01/11 04:49:12;;;;;;;34.88;14.82;;;;;;;;;;5094489;28;19950;-75
2021/01/11 04:51:40;;;;;;;38.17;16.30;;;;;;;;;;5076827;28;20024;-75
2021/01/11 04:54:06;;;;;;;42.53;15.45;;;;;;;;;;5095080;28;20047;-75
2021/01/11 04:56:32;;;;;;;42.38;16.27;;;;;;;;;;5093530;28;20087;-75
2021/01/11 04:58:58;;;;;;;38.55;14.60;;;;;;;;;;5094887;28;20528;-75
2021/01/11 05:01:25;;;;;;;41.63;16.10;;;;;;;;;;5076996;28;20024;-75
2021/01/11 05:03:51;;;;;;;35.08;15.13;;;;;;;;;;5093650;28;20697;-76
2021/01/11 05:06:17;;;;;;;40.33;16.42;;;;;;;;;;5093695;28;20031;-76
2021/01/11 05:08:42;;;;;;;40.03;16.15;;;;;;;;;;5094761;28;20061;-75
2021/01/11 05:11:08;;;;;;;42.63;15.85;;;;;;;;;;5076832;28;20497;-75
2021/01/11 05:13:33;;;;;;;41.10;16.38;;;;;;;;;;5093336;28;20076;-75
2021/01/11 05:16:08;;;;;;;43.47;16.42;;;;;;;;;;5094602;28;20035;-75
2021/01/11 05:18:34;;;;;;;40.60;16.17;;;;;;;;;;5092785;28;20113;-75
2021/01/11 05:20:59;;;;;;;36.20;15.35;;;;;;;;;;5093376;28;20066;-75
2021/01/11 05:23:24;;;;;;;37.78;15.75;;;;;;;;;;5093119;28;20031;-75
2021/01/11 05:25:50;;;;;;;40.45;15.85;;;;;;;;;;5094295;28;20016;-76
2021/01/11 05:28:17;;;;;;;39.72;16.55;;;;;;;;;;5094309;28;20031;-74
2021/01/11 05:30:44;;;;;;;37.22;16.55;;;;;;;;;;5092760;28;20556;-75
2021/01/11 05:33:16;;;;;;;39.05;16.33;;;;;;;;;;5092993;28;20022;-75
2021/01/11 05:35:41;;;;;;;36.65;16.77;;;;;;;;;;5092603;28;20038;-75
2021/01/11 05:38:16;;;;;;;39.72;16.50;;;;;;;;;;5092910;28;20032;-75
2021/01/11 05:40:41;;;;;;;38.17;16.48;;;;;;;;;;5094055;28;20457;-75
2021/01/11 05:43:07;;;;;;;39.00;16.10;;;;;;;;;;5092983;28;20137;-75
2021/01/11 05:45:33;;;;;;;45.70;16.40;;;;;;;;;;5092979;28;20047;-75
2021/01/11 05:48:03;;;;;;;40.92;15.57;;;;;;;;;;5092874;28;20016;-75
2021/01/11 05:50:38;;;;;;;39.08;17.05;;;;;;;;;;5093613;28;20080;-75
2021/01/11 05:53:03;;;;;;;44.97;17.42;;;;;;;;;;5092655;28;20020;-75
2021/01/11 05:55:31;;;;;;;43.88;16.33;;;;;;;;;;5092642;28;20061;-74
2021/01/11 05:57:57;;;;;;;41.80;16.73;;;;;;;;;;5092726;28;20476;-75
2021/01/11 06:00:24;;;;;;;44.67;17.10;;;;;;;;;;5094021;28;20020;-76
2021/01/11 06:02:49;;;;;;;38.60;15.75;;;;;;;;;;5093683;28;20020;-75
2021/01/11 06:05:17;;;;;;;42.60;17.00;;;;;;;;;;5092574;28;20383;-76
2021/01/11 06:07:44;;;;;;;43.65;16.05;;;;;;;;;;5092364;28;20034;-75
2021/01/11 06:10:11;;;;;;;40.80;16.90;;;;;;;;;;5075685;28;20124;-75
2021/01/11 06:12:36;;;;;;;39.15;14.93;;;;;;;;;;5092474;28;20020;-75
2021/01/11 06:15:02;;;;;;;44.08;15.30;;;;;;;;;;5092471;28;20026;-75
2021/01/11 06:17:30;;;;;;;35.10;16.17;;;;;;;;;;5093343;28;20039;-75
2021/01/11 06:19:56;;;;;;;44.20;15.17;;;;;;;;;;5093113;28;20115;-76
2021/01/11 06:22:36;;;;;;;30.60;14.07;;;;;;;;;;5093620;28;20476;-75
2021/01/11 06:25:21;;;;;;;36.35;13.40;;;;;;;;;;5093626;28;20142;-75
2021/01/11 06:28:06;;;;;;;33.53;15.05;;;;;;;;;;5092256;28;20108;-75
2021/01/11 06:30:35;;;;;;;38.78;14.63;;;;;;;;;;5093075;28;20103;-75
2021/01/11 06:33:11;;;;;;;39.13;14.32;;;;;;;;;;5093053;28;20026;-75
2021/01/11 06:35:37;;;;;;;37.05;14.80;;;;;;;;;;5092997;28;20422;-75
2021/01/11 06:40:48;;;;;;;36.92;13.95;;;;;;;;;;5093304;28;20137;-75
2021/01/11 06:43:15;;;;;;;38.08;15.23;;;;;;;;;;5093035;28;20023;-75
2021/01/11 06:45:41;;;;;;;38.55;14.10;;;;;;;;;;5092910;28;20040;-75
2021/01/11 06:48:07;;;;;;;38.10;13.30;;;;;;;;;;5091276;28;20024;-75
2021/01/11 06:50:32;;;;;;;36.38;14.65;;;;;;;;;;5091238;28;20031;-75
2021/01/11 06:53:00;;;;;;;37.65;15.95;;;;;;;;;;5091770;28;20016;-75
2021/01/11 06:55:25;;;;;;;35.65;15.23;;;;;;;;;;5092967;28;20020;-75
2021/01/11 06:57:54;;;;;;;40.05;16.73;;;;;;;;;;5089309;28;20107;-74
2021/01/11 07:00:21;;;;;;;33.75;14.93;;;;;;;;;;5069391;28;20013;-73
2021/01/11 07:02:47;;;;;;;35.33;15.75;;;;;;;;;;5079712;28;20027;-75
2021/01/11 07:05:22;;;;;;;38.05;15.65;;;;;;;;;;5083621;28;20039;-79
2021/01/11 07:07:59;;;;;;;35.88;15.25;;;;;;;;;;5076341;28;20491;-78
2021/01/11 07:10:25;;;;;;;34.58;14.65;;;;;;;;;;5077414;28;20030;-73
2021/01/11 07:12:51;;;;;;;42.03;15.95;;;;;;;;;;5089272;28;20020;-72
2021/01/11 07:15:18;;;;;;;36.40;16.63;;;;;;;;;;5084724;28;20036;-78
2021/01/11 07:17:48;;;;;;;37.55;15.73;;;;;;;;;;5074066;28;20107;-71
2021/01/11 07:20:13;;;;;;;;;;;;;;;;;;5085665;28;20095;-76
2021/01/11 07:22:40;;;;;;;36.28;14.63;;;;;;;;;;5092720;28;20031;-75
2021/01/11 07:25:07;;;;;;;39.42;14.45;;;;;;;;;;5072607;28;20017;-72
2021/01/11 07:27:32;;;;;;;41.03;16.63;;;;;;;;;;5071690;28;20024;-75
2021/01/11 07:29:58;;;;;;;38.42;14.38;;;;;;;;;;5072037;28;20020;-68
2021/01/11 07:32:23;;;;;;;33.78;15.63;;;;;;;;;;5088184;28;20043;-73
2021/01/11 07:34:48;;;;;;;36.05;14.65;;;;;;;;;;5090714;28;20488;-72
2021/01/11 07:37:14;;;;;;;38.20;14.57;;;;;;;;;;5091317;28;20056;-70
2021/01/11 07:39:40;;;;;;;34.67;15.73;;;;;;;;;;5090315;28;20159;-72
2021/01/11 07:42:06;;;;;;;41.63;16.60;;;;;;;;;;5090419;28;20012;-69
2021/01/11 07:44:34;;;;;;;37.40;15.50;;;;;;;;;;5089105;28;20024;-69
2021/01/11 07:46:59;;;;;;;38.10;17.25;;;;;;;;;;5090338;28;20023;-69
2021/01/11 07:49:26;;;;;;;37.83;15.70;;;;;;;;;;5091043;28;20099;-70
2021/01/11 07:51:51;;;;;;;36.47;16.20;;;;;;;;;;5090000;28;20028;-69
2021/01/11 07:54:19;;;;;;;40.72;17.00;;;;;;;;;;5075655;28;20019;-68
2021/01/11 07:56:46;;;;;;;41.45;16.67;;;;;;;;;;5090906;28;20099;-73
2021/01/11 07:59:12;;;;;;;39.33;16.48;;;;;;;;;;5070813;28;20075;-75
2021/01/11 08:01:38;;;;;;;42.03;18.00;;;;;;;;;;5070443;28;20481;-69
2021/01/11 08:04:04;;;;;;;38.88;16.95;;;;;;;;;;5091531;28;20026;-68
2021/01/11 08:06:42;;;;;;;42.10;16.90;;;;;;;;;;5089606;28;20095;-70
2021/01/11 08:09:08;;;;;;;35.92;15.48;;;;;;;;;;5091708;28;20087;-69
2021/01/11 08:11:33;;;;;;;44.55;17.45;;;;;;;;;;5078510;28;20112;-73
2021/01/11 08:14:08;;;;;;;36.80;16.85;;;;;;;;;;5072352;28;20401;-72
2021/01/11 08:16:34;;;;;;;42.90;16.42;;;;;;;;;;5074473;28;20425;-67
2021/01/11 08:19:09;;;;;;;36.38;16.35;;;;;;;;;;5084436;28;20044;-67
2021/01/11 08:21:34;;;;;;;44.92;16.75;;;;;;;;;;5087410;28;20078;-70
2021/01/11 08:24:02;;;;;;;42.55;17.70;;;;;;;;;;5091739;28;20516;-71
2021/01/11 08:26:28;;;;;;;44.03;16.83;;;;;;;;;;5093746;28;20055;-71
2021/01/11 08:28:54;;;;;;;43.45;17.50;;;;;;;;;;5094659;28;20459;-68
2021/01/11 08:31:20;;;;;;;44.95;17.77;;;;;;;;;;5094216;28;20039;-69
2021/01/11 08:33:46;;;;;;;43.65;17.77;;;;;;;;;;5072511;28;20059;-69
2021/01/11 08:36:15;;;;;;;39.08;17.08;;;;;;;;;;5074147;28;20044;-71
2021/01/11 08:38:40;;;;;;;;;;;;;;;;;;5074004;28;20512;-71
2021/01/11 08:41:09;;;;;;;44.83;18.57;;;;;;;;;;5073745;28;19908;-74
2021/01/11 08:43:36;;;;;;;44.05;16.95;;;;;;;;;;5073768;28;20250;-72
2021/01/11 08:46:03;;;;;;;41.50;18.20;;;;;;;;;;5072754;28;20111;-73
2021/01/11 08:48:31;;;;;;;44.67;18.35;;;;;;;;;;5090324;28;20020;-74
2021/01/11 08:50:57;;;;;;;40.90;17.80;;;;;;;;;;5094347;28;20020;-70
2021/01/11 08:53:23;;;;;;;41.85;17.33;;;;;;;;;;5093541;28;20024;-72
2021/01/11 08:55:56;;;;;;;47.00;17.88;;;;;;;;;;5075295;28;20069;-70
2021/01/11 08:58:22;;;;;;;40.17;17.70;;;;;;;;;;5093513;28;20024;-69
2021/01/11 09:00:48;;;;;;;45.00;18.70;;;;;;;;;;5069845;28;20016;-73
2021/01/11 09:03:13;;;;;;;42.10;18.35;;;;;;;;;;5067393;28;20024;-73
2021/01/11 09:05:39;;;;;;;39.30;17.45;;;;;;;;;;5092712;28;20020;-72
2021/01/11 09:08:15;;;;;;;43.05;17.50;;;;;;;;;;5075263;28;20031;-73
2021/01/11 09:10:43;;;;;;;37.97;17.08;;;;;;;;;;5078722;28;20027;-74
2021/01/11 09:13:18;;;;;;;42.35;18.55;;;;;;;;;;5072256;28;20042;-74
2021/01/11 09:15:43;;;;;;;42.08;17.67;;;;;;;;;;5071747;28;20095;-73
2021/01/11 09:18:10;;;;;;;39.70;16.98;;;;;;;;;;5070761;28;20115;-74
2021/01/11 09:20:36;;;;;;;42.47;17.08;;;;;;;;;;5071364;28;20020;-73
2021/01/11 09:23:01;;;;;;;45.90;17.75;;;;;;;;;;5075331;28;20376;-70
2021/01/11 09:25:28;;;;;;;40.03;17.98;;;;;;;;;;5080468;28;20021;-72
2021/01/11 09:27:54;;;;;;;43.28;19.52;;;;;;;;;;5074081;28;20104;-73
2021/01/11 09:30:19;;;;;;;44.67;17.50;;;;;;;;;;5079831;28;20104;-70
2021/01/11 09:32:45;;;;;;;38.22;16.45;;;;;;;;;;5083109;28;20462;-74
2021/01/11 09:35:13;;;;;;;44.17;16.83;;;;;;;;;;5078462;28;20035;-75
2021/01/11 09:37:38;;;;;;;42.47;17.45;;;;;;;;;;5087548;28;20052;-80
2021/01/11 09:40:04;;;;;;;44.20;18.58;;;;;;;;;;5082357;28;20075;-75
2021/01/11 09:42:29;;;;;;;45.22;19.10;;;;;;;;;;5086152;28;20020;-77
2021/01/11 09:44:55;;;;;;;46.30;19.70;;;;;;;;;;5072325;28;20107;-76
2021/01/11 09:47:22;;;;;;;47.17;16.98;;;;;;;;;;5084247;28;20057;-77
2021/01/11 09:49:47;;;;;;;44.35;18.50;;;;;;;;;;5080670;28;20384;-77
2021/01/11 09:52:13;;;;;;;45.28;19.30;;;;;;;;;;5086920;28;20020;-74
2021/01/11 09:54:38;;;;;;;41.78;18.48;;;;;;;;;;5077844;28;20016;-77
2021/01/11 09:57:04;;;;;;;43.63;18.35;;;;;;;;;;5088009;28;20024;-77
2021/01/11 09:59:30;;;;;;;42.22;18.25;;;;;;;;;;5083948;28;20020;-80
2021/01/11 10:01:55;;;;;;;47.88;18.35;;;;;;;;;;5087215;28;20017;-76
2021/01/11 10:04:21;;;;;;;42.35;17.77;;;;;;;;;;5083589;28;20028;-75
2021/01/11 10:06:48;;;;;;;42.78;18.98;;;;;;;;;;5091265;28;20008;-76
2021/01/11 10:09:17;;;;;;;41.35;18.08;;;;;;;;;;5091978;28;20019;-75
2021/01/11 10:11:44;;;;;;;47.47;18.85;;;;;;;;;;5093195;28;20108;-77
2021/01/11 10:14:10;;;;;;;41.65;17.08;;;;;;;;;;5092362;28;20472;-77
2021/01/11 10:16:38;;;;;;;40.63;17.25;;;;;;;;;;5092286;28;20031;-77
2021/01/11 10:19:04;;;;;;;40.42;17.83;;;;;;;;;;5091378;28;20043;-74
2021/01/11 10:21:29;;;;;;;38.42;17.15;;;;;;;;;;5091791;28;20069;-72
2021/01/11 10:23:55;;;;;;;38.92;18.20;;;;;;;;;;5092642;28;20437;-74
2021/01/11 10:26:20;;;;;;;41.25;16.90;;;;;;;;;;5090936;28;20012;-77
2021/01/11 10:28:47;;;;;;;38.40;16.77;;;;;;;;;;5092437;28;20008;-75
2021/01/11 10:31:12;;;;;;;44.88;17.17;;;;;;;;;;5092345;28;20099;-77
2021/01/11 10:33:37;;;;;;;39.85;16.27;;;;;;;;;;5083675;28;20119;-79
2021/01/11 10:36:03;;;;;;;41.95;16.90;;;;;;;;;;5084364;28;20054;-77
2021/01/11 10:38:29;;;;;;;40.17;16.85;;;;;;;;;;5086681;28;20027;-77
2021/01/11 10:40:55;;;;;;;43.67;17.60;;;;;;;;;;5086533;28;20020;-78
2021/01/11 10:43:20;;;;;;;39.33;16.83;;;;;;;;;;5094568;28;20016;-77
2021/01/11 10:45:46;;;;;;;37.08;15.93;;;;;;;;;;5077525;28;20015;-73
2021/01/11 10:48:11;;;;;;;39.10;16.83;;;;;;;;;;5075230;28;20095;-68
2021/01/11 10:50:36;;;;;;;37.63;16.10;;;;;;;;;;5073149;28;20031;-69
2021/01/11 10:53:02;;;;;;;42.17;16.75;;;;;;;;;;5094085;28;20353;-68
2021/01/11 10:55:27;;;;;;;39.53;17.45;;;;;;;;;;5091048;28;20031;-69
2021/01/11 10:57:52;;;;;;;40.67;17.27;;;;;;;;;;5090729;28;20051;-69
2021/01/11 11:00:21;;;;;;;39.47;17.50;;;;;;;;;;5091900;28;20027;-71
2021/01/11 11:02:47;;;;;;;38.97;16.70;;;;;;;;;;5092214;28;20153;-72
2021/01/11 11:05:13;;;;;;;43.33;16.63;;;;;;;;;;5099036;28;20575;-69
2021/01/11 11:07:38;;;;;;;43.95;18.67;;;;;;;;;;5098764;28;20433;-69
2021/01/11 11:10:05;;;;;;;42.03;19.23;;;;;;;;;;5074345;28;20049;-69
2021/01/11 11:12:31;;;;;;;40.50;17.88;;;;;;;;;;5091257;28;20073;-69
2021/01/11 11:14:58;;;;;;;39.75;18.08;;;;;;;;;;5091414;28;20024;-69
2021/01/11 11:17:24;;;;;;;38.28;16.95;;;;;;;;;;5087012;28;20031;-68
2021/01/11 11:19:49;;;;;;;42.67;17.58;;;;;;;;;;5076883;28;20077;-69
2021/01/11 11:22:14;;;;;;;38.97;17.27;;;;;;;;;;5085507;28;20023;-69
2021/01/11 11:24:40;;;;;;;39.17;16.63;;;;;;;;;;5080381;28;20019;-70
2021/01/11 11:27:05;;;;;;;40.33;17.17;;;;;;;;;;5089749;28;20008;-68
2021/01/11 11:29:31;;;;;;;41.38;16.58;;;;;;;;;;5083076;28;20472;-70
2021/01/11 11:31:56;;;;;;;42.08;17.90;;;;;;;;;;5071495;28;20017;-70
2021/01/11 11:34:21;;;;;;;39.05;16.88;;;;;;;;;;5078885;28;20365;-70
2021/01/11 11:36:47;;;;;;;40.42;16.60;;;;;;;;;;5080397;28;20123;-72
2021/01/11 11:39:12;;;;;;;38.28;16.15;;;;;;;;;;5082984;28;20123;-71
2021/01/11 11:41:38;;;;;;;39.25;16.58;;;;;;;;;;5078952;28;20127;-70
2021/01/11 11:44:03;;;;;;;36.03;14.90;;;;;;;;;;5081432;28;20069;-69
2021/01/11 11:46:29;;;;;;;37.92;16.75;;;;;;;;;;5066852;28;20075;-69
2021/01/11 11:48:55;;;;;;;36.25;16.05;;;;;;;;;;5077345;28;20021;-70
2021/01/11 11:51:21;;;;;;;43.47;18.20;;;;;;;;;;5080046;28;20116;-71
2021/01/11 11:53:46;;;;;;;41.88;17.67;;;;;;;;;;5074144;28;20099;-72
2021/01/11 11:56:13;;;;;;;36.58;17.02;;;;;;;;;;5073524;28;20051;-69
2021/01/11 11:58:38;;;;;;;40.42;18.27;;;;;;;;;;5073299;28;20035;-70
2021/01/11 12:01:03;;;;;;;41.47;16.52;;;;;;;;;;5073535;28;20020;-69
2021/01/11 12:03:29;;;;;;;38.63;17.60;;;;;;;;;;5074391;28;20093;-69
2021/01/11 12:05:54;;;;;;;45.25;16.65;;;;;;;;;;5073414;28;20141;-70
2021/01/11 12:08:20;;;;;;;42.40;18.10;;;;;;;;;;5085222;28;20024;-69
2021/01/11 12:10:45;;;;;;;40.22;16.65;;;;;;;;;;5089975;28;20013;-69
2021/01/11 12:13:11;;;;;;;41.55;16.42;;;;;;;;;;5073629;28;20024;-68
2021/01/11 12:15:36;;;;;;;40.63;16.75;;;;;;;;;;5074573;28;20377;-70
2021/01/11 12:18:02;;;;;;;40.67;17.05;;;;;;;;;;5074330;28;20445;-70
2021/01/11 12:20:27;;;;;;;42.70;18.52;;;;;;;;;;5073661;28;20020;-68
2021/01/11 12:22:52;;;;;;;39.47;16.05;;;;;;;;;;5056426;28;20024;-69
2021/01/11 12:25:18;;;;;;;39.83;17.02;;;;;;;;;;5073908;28;20024;-68
2021/01/11 12:27:43;;;;;;;38.10;16.65;;;;;;;;;;5074441;28;20028;-71
2021/01/11 12:30:09;;;;;;;37.55;16.75;;;;;;;;;;5074183;28;20381;-69
2021/01/11 12:32:37;;;;;;;39.08;16.08;;;;;;;;;;5074283;28;20470;-70
2021/01/11 12:35:02;;;;;;;39.50;17.05;;;;;;;;;;5074105;28;20032;-69
2021/01/11 12:37:27;;;;;;;41.35;15.98;;;;;;;;;;5083862;28;20407;-69
2021/01/11 12:39:53;;;;;;;43.80;18.13;;;;;;;;;;5093974;28;20020;-70
2021/01/11 12:42:18;;;;;;;33.38;15.23;;;;;;;;;;5093876;28;20487;-69
2021/01/11 12:44:43;;;;;;;37.13;16.30;;;;;;;;;;5094007;28;20062;-69
2021/01/11 12:47:09;;;;;;;39.05;16.73;;;;;;;;;;5094258;28;20069;-69
2021/01/11 12:49:38;;;;;;;36.25;15.20;;;;;;;;;;5087447;28;20024;-68
2021/01/11 12:52:04;;;;;;;35.47;16.55;;;;;;;;;;5078996;28;20469;-70
2021/01/11 12:54:29;;;;;;;36.55;16.27;;;;;;;;;;5085128;28;20071;-72
2021/01/11 12:56:54;;;;;;;35.05;14.98;;;;;;;;;;5082731;28;20020;-68
2021/01/11 12:59:20;;;;;;;33.67;15.20;;;;;;;;;;5082194;28;20046;-69
2021/01/11 13:01:45;;;;;;;40.00;17.33;;;;;;;;;;5082404;28;20009;-71
2021/01/11 13:04:11;;;;;;;38.15;16.77;;;;;;;;;;5083620;28;20020;-70
2021/01/11 13:06:37;;;;;;;38.40;15.13;;;;;;;;;;5079214;28;20086;-72
2021/01/11 13:09:04;;;;;;;36.10;14.93;;;;;;;;;;5084676;28;20029;-71
2021/01/11 13:11:30;;;;;;;43.55;15.88;;;;;;;;;;5089806;28;20541;-70
2021/01/11 13:13:57;;;;;;;35.38;16.52;;;;;;;;;;5086787;28;20106;-70
2021/01/11 13:16:25;;;;;;;33.25;14.70;;;;;;;;;;5072253;28;20029;-69
2021/01/11 13:18:51;;;;;;;36.90;16.30;;;;;;;;;;5085163;28;20036;-71
2021/01/11 13:21:17;;;;;;;40.08;16.77;;;;;;;;;;5075566;28;20036;-72
2021/01/11 13:23:42;;;;;;;40.05;16.48;;;;;;;;;;5088508;28;20035;-73
2021/01/11 13:26:07;;;;;;;33.17;14.98;;;;;;;;;;5088877;28;20028;-71
2021/01/11 13:28:33;;;;;;;38.50;15.98;;;;;;;;;;5091955;28;20099;-71
2021/01/11 13:30:58;;;;;;;31.23;15.57;;;;;;;;;;5093700;28;20383;-70
2021/01/11 13:33:24;;;;;;;38.20;15.80;;;;;;;;;;5091233;28;20465;-70
2021/01/11 13:35:50;;;;;;;36.22;15.95;;;;;;;;;;5087720;28;20028;-71
2021/01/11 13:38:18;;;;;;;39.05;17.20;;;;;;;;;;5076533;28;20067;-70
2021/01/11 13:40:43;;;;;;;41.97;16.27;;;;;;;;;;5078396;28;20024;-68
2021/01/11 13:43:09;;;;;;;36.13;16.55;;;;;;;;;;5083729;28;20017;-70
2021/01/11 13:45:34;;;;;;;34.40;15.90;;;;;;;;;;5085941;28;20014;-68
2021/01/11 13:48:00;;;;;;;36.35;16.55;;;;;;;;;;5092475;28;20016;-67
2021/01/11 13:50:26;;;;;;;37.20;16.23;;;;;;;;;;5073907;28;20098;-69
2021/01/11 13:52:51;;;;;;;34.85;16.00;;;;;;;;;;5085996;28;20009;-69
2021/01/11 13:55:17;;;;;;;39.33;16.17;;;;;;;;;;5082688;28;20027;-70
2021/01/11 13:57:42;;;;;;;42.17;16.75;;;;;;;;;;5082975;28;20127;-70
2021/01/11 14:00:09;;;;;;;36.00;16.33;;;;;;;;;;5085289;28;20465;-71
2021/01/11 14:02:34;;;;;;;35.78;16.80;;;;;;;;;;5084586;28;20020;-72
2021/01/11 14:05:00;;;;;;;42.15;18.45;;;;;;;;;;5085960;28;20152;-71
2021/01/11 14:07:27;;;;;;;38.58;16.55;;;;;;;;;;5083744;28;20052;-70
2021/01/11 14:09:52;;;;;;;39.45;16.70;;;;;;;;;;5081233;28;20385;-69
2021/01/11 14:12:17;;;;;;;34.10;16.45;;;;;;;;;;5087167;28;20024;-70
2021/01/11 14:14:43;;;;;;;41.30;17.33;;;;;;;;;;5083729;28;20456;-71
2021/01/11 14:17:08;;;;;;;37.45;16.42;;;;;;;;;;5088052;28;20495;-71